createdAt,value
2023-02-16T00:00:21.900Z,23.55
2023-02-16T00:02:49.482Z,25.67
2023-02-16T00:05:27.690Z,24.15
2023-02-16T00:07:56.401Z,23.63
2023-02-16T00:10:25.159Z,23.55
2023-02-16T00:13:12.031Z,23.65
2023-02-16T00:15:39.631Z,24.00
2023-02-16T00:18:18.600Z,24.10
2023-02-16T00:20:46.360Z,23.20
2023-02-16T00:23:13.299Z,25.27
2023-02-16T00:25:40.640Z,24.00
2023-02-16T00:28:18.431Z,25.30
2023-02-16T00:30:45.798Z,26.50
2023-02-16T00:33:19.525Z,23.42
2023-02-16T00:35:46.793Z,24.77
2023-02-16T00:38:16.160Z,24.25
2023-02-16T00:40:43.612Z,24.02
2023-02-16T00:43:26.253Z,23.83
2023-02-16T00:45:53.614Z,23.77
2023-02-16T00:48:21.165Z,24.15
2023-02-16T00:50:48.550Z,24.63
2023-02-16T00:53:18.194Z,25.83
2023-02-16T00:55:45.251Z,24.63
2023-02-16T00:58:22.858Z,25.13
2023-02-16T01:00:54.325Z,23.50
2023-02-16T01:03:25.775Z,24.33
2023-02-16T01:06:12.019Z,24.48
2023-02-16T01:08:57.215Z,25.95
2023-02-16T01:11:25.683Z,25.67
2023-02-16T01:13:54.064Z,25.77
2023-02-16T01:16:24.005Z,25.17
2023-02-16T01:18:52.743Z,25.20
2023-02-16T01:21:21.866Z,25.25
2023-02-16T01:23:49.156Z,23.58
2023-02-16T01:26:18.912Z,24.58
2023-02-16T01:28:47.780Z,25.33
2023-02-16T01:31:16.816Z,24.05
2023-02-16T01:33:44.237Z,24.38
2023-02-16T01:36:28.440Z,24.42
2023-02-16T01:38:55.536Z,25.17
2023-02-16T01:42:03.741Z,24.52
2023-02-16T01:44:41.076Z,23.40
2023-02-16T01:47:41.497Z,24.52
2023-02-16T01:50:24.630Z,22.40
2023-02-16T01:52:51.624Z,23.63
2023-02-16T01:55:24.958Z,23.77
2023-02-16T01:58:02.364Z,24.63
2023-02-16T02:00:56.867Z,24.05
2023-02-16T02:03:43.894Z,23.52
2023-02-16T02:06:13.641Z,24.05
2023-02-16T02:09:03.954Z,23.80
2023-02-16T02:11:40.624Z,23.45
2023-02-16T02:14:19.374Z,23.58
2023-02-16T02:17:07.460Z,24.63
2023-02-16T02:20:01.915Z,23.85
2023-02-16T02:23:11.776Z,23.80
2023-02-16T02:26:20.861Z,23.77
2023-02-16T02:29:26.758Z,23.35
2023-02-16T02:32:14.787Z,23.73
2023-02-16T02:35:02.662Z,23.60
2023-02-16T02:37:58.676Z,23.60
2023-02-16T02:41:00.544Z,24.30
2023-02-16T02:43:36.134Z,23.85
2023-02-16T02:46:14.465Z,23.90
2023-02-16T02:48:42.272Z,22.50
2023-02-16T02:51:28.072Z,22.88
2023-02-16T02:54:54.710Z,23.05
2023-02-16T02:58:09.916Z,22.40
2023-02-16T03:00:41.632Z,21.80
2023-02-16T03:03:33.349Z,22.33
2023-02-16T03:06:06.682Z,22.17
2023-02-16T03:08:36.881Z,23.98
2023-02-16T03:11:28.737Z,20.77
2023-02-16T03:14:18.545Z,21.83
2023-02-16T03:16:51.261Z,22.05
2023-02-16T03:19:37.202Z,21.33
2023-02-16T03:22:24.079Z,21.63
2023-02-16T03:25:09.505Z,22.33
2023-02-16T03:27:59.341Z,20.58
2023-02-16T03:30:27.222Z,21.95
2023-02-16T03:32:55.017Z,20.88
2023-02-16T03:35:22.253Z,21.23
2023-02-16T03:37:49.497Z,22.65
2023-02-16T03:40:30.176Z,21.35
2023-02-16T03:43:02.794Z,19.88
2023-02-16T03:45:31.348Z,21.80
2023-02-16T03:47:58.734Z,21.25
2023-02-16T03:50:27.136Z,21.38
2023-02-16T03:53:07.759Z,19.42
2023-02-16T03:55:48.742Z,19.90
2023-02-16T03:58:21.879Z,19.88
2023-02-16T04:00:49.069Z,20.13
2023-02-16T04:03:16.668Z,20.98
2023-02-16T04:05:43.897Z,20.52
2023-02-16T04:08:11.398Z,19.63
2023-02-16T04:10:39.258Z,18.40
2023-02-16T04:13:06.716Z,20.17
2023-02-16T04:15:34.090Z,19.33
2023-02-16T04:18:01.535Z,20.40
2023-02-16T04:20:31.098Z,19.40
2023-02-16T04:22:58.651Z,20.25
2023-02-16T04:25:26.118Z,19.17
2023-02-16T04:27:53.309Z,20.13
2023-02-16T04:30:23.181Z,21.13
2023-02-16T04:32:50.784Z,20.20
2023-02-16T04:35:18.380Z,19.13
2023-02-16T04:37:45.403Z,19.88
2023-02-16T04:40:17.154Z,19.15
2023-02-16T04:42:45.205Z,19.23
2023-02-16T04:45:12.729Z,21.15
2023-02-16T04:47:39.741Z,20.23
2023-02-16T04:50:07.686Z,20.75
2023-02-16T04:52:34.694Z,19.63
2023-02-16T04:55:01.691Z,18.90
2023-02-16T04:57:28.749Z,18.95
2023-02-16T04:59:55.723Z,19.70
2023-02-16T05:02:23.029Z,19.70
2023-02-16T05:04:50.130Z,21.10
2023-02-16T05:07:17.069Z,20.20
2023-02-16T05:09:43.994Z,18.38
2023-02-16T05:12:30.208Z,20.60
2023-02-16T05:14:57.117Z,18.08
2023-02-16T05:17:26.719Z,18.95
2023-02-16T05:19:59.167Z,19.25
2023-02-16T05:22:28.888Z,19.58
2023-02-16T05:24:55.853Z,20.00
2023-02-16T05:27:25.745Z,18.50
2023-02-16T05:29:52.854Z,20.50
2023-02-16T05:32:20.080Z,19.27
2023-02-16T05:34:47.219Z,18.55
2023-02-16T05:37:15.827Z,19.58
2023-02-16T05:39:43.002Z,20.13
2023-02-16T05:42:10.052Z,19.27
2023-02-16T05:44:37.865Z,19.10
2023-02-16T05:47:04.838Z,17.45
2023-02-16T05:49:32.033Z,19.33
2023-02-16T05:51:59.135Z,19.88
2023-02-16T05:54:27.979Z,17.55
2023-02-16T05:56:55.109Z,19.08
2023-02-16T05:59:22.324Z,18.77
2023-02-16T06:01:51.824Z,18.15
2023-02-16T06:04:20.423Z,20.83
2023-02-16T06:06:47.685Z,19.48
2023-02-16T06:09:15.074Z,19.25
2023-02-16T06:11:42.376Z,20.08
2023-02-16T06:14:12.484Z,20.73
2023-02-16T06:16:41.828Z,19.90
2023-02-16T06:19:09.836Z,20.10
2023-02-16T06:21:38.143Z,20.70
2023-02-16T06:24:06.165Z,20.08
2023-02-16T06:26:33.567Z,20.60
2023-02-16T06:29:00.626Z,19.92
2023-02-16T06:31:28.059Z,20.85
2023-02-16T06:33:56.891Z,20.83
2023-02-16T06:36:24.544Z,21.17
2023-02-16T06:38:51.571Z,21.27
2023-02-16T06:41:31.439Z,20.80
2023-02-16T06:44:00.878Z,21.42
2023-02-16T06:46:28.497Z,20.25
2023-02-16T06:48:55.699Z,21.25
2023-02-16T06:51:22.773Z,20.80
2023-02-16T06:53:49.811Z,22.05
2023-02-16T06:56:16.916Z,21.13
2023-02-16T06:58:43.957Z,20.02
2023-02-16T07:01:12.062Z,18.92
2023-02-16T07:03:39.065Z,19.75
2023-02-16T07:06:06.684Z,18.63
2023-02-16T07:08:35.686Z,20.55
2023-02-16T07:11:03.230Z,18.33
2023-02-16T07:13:30.441Z,19.08
2023-02-16T07:15:57.497Z,19.48
2023-02-16T07:18:24.628Z,21.63
2023-02-16T07:20:51.619Z,20.25
2023-02-16T07:23:18.592Z,20.48
2023-02-16T07:25:45.543Z,19.98
2023-02-16T07:28:12.654Z,19.45
2023-02-16T07:30:40.183Z,19.80
2023-02-16T07:33:07.150Z,17.90
2023-02-16T07:35:35.495Z,19.15
2023-02-16T07:38:03.587Z,18.25
2023-02-16T07:40:31.127Z,17.95
2023-02-16T07:43:02.373Z,19.23
2023-02-16T07:45:30.153Z,19.75
2023-02-16T07:47:57.196Z,19.50
2023-02-16T07:50:24.525Z,20.85
2023-02-16T07:52:51.458Z,19.63
2023-02-16T07:55:18.685Z,19.55
2023-02-16T07:57:45.837Z,19.65
2023-02-16T08:00:13.304Z,20.60
2023-02-16T08:02:40.895Z,18.48
2023-02-16T08:05:08.307Z,18.13
2023-02-16T08:07:35.337Z,20.40
2023-02-16T08:10:02.624Z,18.80
2023-02-16T08:12:29.598Z,18.95
2023-02-16T08:14:56.533Z,18.85
2023-02-16T08:17:23.661Z,20.33
2023-02-16T08:19:50.955Z,19.00
2023-02-16T08:22:18.330Z,18.50
2023-02-16T08:24:45.462Z,19.17
2023-02-16T08:27:12.646Z,18.17
2023-02-16T08:29:39.758Z,20.02
2023-02-16T08:32:07.814Z,18.85
2023-02-16T08:34:35.604Z,19.92
2023-02-16T08:37:02.611Z,17.65
2023-02-16T08:39:31.696Z,19.45
2023-02-16T08:42:00.497Z,17.92
2023-02-16T08:44:29.074Z,16.80
2023-02-16T08:46:58.927Z,19.02
2023-02-16T08:49:26.110Z,18.77
2023-02-16T08:51:55.753Z,19.33
2023-02-16T08:54:30.266Z,19.63
2023-02-16T08:56:59.122Z,18.55
2023-02-16T08:59:28.885Z,17.48
2023-02-16T09:02:00.223Z,17.15
2023-02-16T09:04:31.315Z,18.30
2023-02-16T09:07:00.204Z,18.85
2023-02-16T09:09:28.626Z,20.33
2023-02-16T09:11:56.160Z,19.33
2023-02-16T09:14:23.376Z,19.13
2023-02-16T09:16:50.568Z,19.52
2023-02-16T09:19:20.772Z,18.77
2023-02-16T09:21:50.874Z,20.20
2023-02-16T09:24:19.262Z,29.52
2023-02-16T09:26:46.395Z,21.60
2023-02-16T09:29:13.989Z,20.42
2023-02-16T09:31:42.278Z,16.88
2023-02-16T09:34:21.583Z,19.35
2023-02-16T09:36:49.730Z,20.27
2023-02-16T09:39:17.185Z,17.92
2023-02-16T09:42:21.706Z,19.95
2023-02-16T09:44:58.709Z,18.50
2023-02-16T09:47:31.057Z,18.35
2023-02-16T09:50:02.057Z,16.52
2023-02-16T09:52:35.800Z,17.15
2023-02-16T09:55:08.065Z,19.42
2023-02-16T09:57:43.542Z,18.13
2023-02-16T10:00:34.343Z,20.05
2023-02-16T10:03:13.370Z,18.75
2023-02-16T10:05:52.027Z,19.50
2023-02-16T10:08:27.545Z,17.08
2023-02-16T10:11:41.315Z,18.08
2023-02-16T10:14:33.761Z,18.85
2023-02-16T10:17:06.701Z,21.08
2023-02-16T10:20:06.099Z,20.58
2023-02-16T10:22:37.740Z,20.25
2023-02-16T10:25:17.062Z,19.45
2023-02-16T10:27:47.902Z,19.30
2023-02-16T10:30:23.028Z,21.50
2023-02-16T10:33:03.948Z,19.98
2023-02-16T10:35:49.006Z,19.27
2023-02-16T10:38:29.869Z,20.08
2023-02-16T10:41:18.284Z,19.42
2023-02-16T10:43:58.297Z,19.60
2023-02-16T10:46:31.110Z,17.73
2023-02-16T10:48:59.834Z,16.80
2023-02-16T10:51:36.598Z,18.75
2023-02-16T10:54:19.992Z,15.82
2023-02-16T10:56:59.608Z,18.30
2023-02-16T10:59:38.320Z,16.35
2023-02-16T11:02:22.043Z,18.77
2023-02-16T11:04:54.451Z,16.55
2023-02-16T11:07:24.675Z,17.20
2023-02-16T11:09:54.855Z,18.00
2023-02-16T11:12:39.475Z,18.33
2023-02-16T11:15:16.674Z,16.67
2023-02-16T11:18:17.045Z,15.35
2023-02-16T11:20:46.676Z,15.18
2023-02-16T11:23:22.888Z,16.50
2023-02-16T11:26:10.149Z,15.95
2023-02-16T11:28:40.894Z,17.42
2023-02-16T11:31:18.764Z,16.58
2023-02-16T11:34:06.432Z,15.75
2023-02-16T11:36:41.149Z,17.33
2023-02-16T11:39:14.304Z,15.75
2023-02-16T11:41:52.364Z,11.10
2023-02-16T11:44:38.599Z,15.13
2023-02-16T11:47:41.674Z,15.13
2023-02-16T11:50:29.253Z,17.55
2023-02-16T11:53:11.480Z,15.40
2023-02-16T11:55:41.837Z,16.13
2023-02-16T11:58:27.775Z,11.68
2023-02-16T12:01:08.621Z,15.32
2023-02-16T12:03:59.825Z,15.57
2023-02-16T12:07:04.789Z,14.30
2023-02-16T12:09:49.727Z,9.45
2023-02-16T12:12:21.089Z,14.10
2023-02-16T12:15:11.461Z,12.60
2023-02-16T12:17:47.093Z,15.57
2023-02-16T12:20:55.644Z,16.42
2023-02-16T12:23:59.017Z,11.00
2023-02-16T12:26:34.080Z,14.02
2023-02-16T12:29:11.218Z,12.93
2023-02-16T12:32:16.758Z,11.48
2023-02-16T12:35:15.930Z,10.73
2023-02-16T12:37:49.971Z,12.98
2023-02-16T12:40:37.344Z,11.10
2023-02-16T12:43:28.611Z,13.07
2023-02-16T12:45:58.076Z,12.00
2023-02-16T12:48:40.091Z,12.40
2023-02-16T12:51:13.924Z,12.60
2023-02-16T12:53:49.969Z,11.02
2023-02-16T12:56:23.635Z,10.90
2023-02-16T12:59:04.007Z,8.68
2023-02-16T13:01:35.805Z,15.32
2023-02-16T13:04:20.292Z,14.32
2023-02-16T13:07:02.477Z,9.07
2023-02-16T13:09:36.487Z,8.18
2023-02-16T13:12:40.478Z,12.57
2023-02-16T13:15:20.701Z,15.10
2023-02-16T13:18:03.088Z,15.82
2023-02-16T13:20:30.251Z,9.43
2023-02-16T13:23:19.085Z,16.60
2023-02-16T13:26:10.824Z,17.08
2023-02-16T13:28:38.291Z,9.82
2023-02-16T13:31:12.546Z,12.23
2023-02-16T13:34:07.306Z,8.43
2023-02-16T13:36:42.980Z,10.73
2023-02-16T13:39:18.729Z,8.45
2023-02-16T13:42:07.223Z,8.32
2023-02-16T13:44:39.018Z,13.48
2023-02-16T13:47:07.566Z,10.55
2023-02-16T13:49:43.161Z,16.65
2023-02-16T13:52:26.126Z,9.70
2023-02-16T13:54:53.701Z,10.23
2023-02-16T13:57:50.676Z,14.00
2023-02-16T14:00:30.561Z,10.20
2023-02-16T14:03:04.210Z,11.02
2023-02-16T14:05:37.917Z,9.65
2023-02-16T14:08:11.042Z,10.98
2023-02-16T14:10:53.467Z,15.30
2023-02-16T14:13:39.220Z,14.52
2023-02-16T14:16:31.679Z,15.40
2023-02-16T14:19:22.463Z,11.93
2023-02-16T14:21:50.320Z,12.77
2023-02-16T14:24:29.347Z,9.35
2023-02-16T14:27:09.586Z,10.55
2023-02-16T14:29:44.295Z,13.80
2023-02-16T14:32:29.109Z,9.05
2023-02-16T14:35:20.933Z,12.00
2023-02-16T14:38:05.611Z,13.10
2023-02-16T14:40:43.641Z,10.25
2023-02-16T14:43:34.148Z,11.98
2023-02-16T14:46:38.529Z,7.63
2023-02-16T14:49:06.587Z,10.43
2023-02-16T14:51:55.772Z,13.80
2023-02-16T14:54:22.669Z,12.05
2023-02-16T14:57:19.797Z,12.18
2023-02-16T14:59:57.351Z,12.73
2023-02-16T15:02:38.986Z,8.63
2023-02-16T15:05:23.570Z,8.85
2023-02-16T15:07:55.321Z,9.68
2023-02-16T15:10:27.149Z,8.73
2023-02-16T15:12:55.797Z,9.57
2023-02-16T15:15:36.177Z,11.77
2023-02-16T15:18:06.492Z,11.02
2023-02-16T15:20:36.718Z,8.57
2023-02-16T15:23:25.766Z,9.75
2023-02-16T15:26:01.819Z,9.60
2023-02-16T15:28:31.274Z,11.60
2023-02-16T15:31:05.762Z,12.18
2023-02-16T15:33:38.637Z,11.45
2023-02-16T15:36:24.537Z,12.88
2023-02-16T15:38:58.770Z,9.35
2023-02-16T15:41:48.625Z,7.55
2023-02-16T15:44:36.830Z,11.00
2023-02-16T15:47:13.816Z,11.63
2023-02-16T15:49:40.979Z,9.75
2023-02-16T15:52:29.875Z,9.10
2023-02-16T15:54:57.770Z,11.38
2023-02-16T15:57:30.921Z,11.23
2023-02-16T16:00:00.618Z,9.00
2023-02-16T16:02:38.601Z,10.13
2023-02-16T16:05:09.822Z,7.75
2023-02-16T16:07:40.776Z,10.75
2023-02-16T16:10:16.860Z,8.32
2023-02-16T16:12:45.022Z,11.50
2023-02-16T16:15:21.335Z,10.90
2023-02-16T16:17:48.759Z,9.57
2023-02-16T16:20:29.068Z,11.45
2023-02-16T16:23:02.073Z,10.85
2023-02-16T16:25:40.196Z,11.95
2023-02-16T16:28:11.035Z,11.48
2023-02-16T16:30:45.258Z,8.13
2023-02-16T16:33:14.654Z,12.77
2023-02-16T16:35:47.711Z,11.00
2023-02-16T16:38:24.538Z,10.80
2023-02-16T16:40:58.041Z,10.45
2023-02-16T16:43:30.133Z,10.30
2023-02-16T16:46:23.449Z,14.32
2023-02-16T16:48:53.946Z,10.80
2023-02-16T16:51:41.770Z,8.88
2023-02-16T16:54:35.931Z,12.07
2023-02-16T16:57:17.383Z,10.70
2023-02-16T16:59:44.468Z,12.85
2023-02-16T17:02:11.445Z,9.88
2023-02-16T17:04:38.538Z,11.40
2023-02-16T17:07:06.986Z,12.98
2023-02-16T17:09:33.964Z,11.40
2023-02-16T17:12:00.897Z,12.93
2023-02-16T17:14:28.599Z,12.55
2023-02-16T17:16:56.459Z,10.32
2023-02-16T17:19:27.346Z,11.73
2023-02-16T17:21:54.398Z,11.60
2023-02-16T17:24:23.809Z,11.07
2023-02-16T17:26:51.060Z,11.38
2023-02-16T17:29:18.060Z,10.35
2023-02-16T17:31:45.069Z,13.27
2023-02-16T17:34:11.981Z,19.60
2023-02-16T17:36:39.138Z,21.65
2023-02-16T17:39:07.233Z,21.77
2023-02-16T17:41:34.259Z,23.90
2023-02-16T17:44:01.404Z,25.55
2023-02-16T17:46:29.276Z,26.02
2023-02-16T17:48:56.399Z,32.55
2023-02-16T17:51:25.362Z,25.08
2023-02-16T17:53:52.575Z,24.58
2023-02-16T17:56:22.486Z,28.20
2023-02-16T17:58:50.111Z,24.13
2023-02-16T18:01:18.282Z,22.70
2023-02-16T18:03:45.414Z,21.15
2023-02-16T18:06:17.389Z,22.45
2023-02-16T18:08:45.082Z,22.45
2023-02-16T18:11:12.601Z,19.85
2023-02-16T18:13:40.107Z,20.00
2023-02-16T18:16:08.446Z,17.67
2023-02-16T18:18:36.879Z,18.67
2023-02-16T18:21:04.381Z,17.67
2023-02-16T18:23:32.037Z,16.35
2023-02-16T18:25:59.114Z,17.25
2023-02-16T18:28:30.751Z,16.85
2023-02-16T18:31:01.441Z,16.77
2023-02-16T18:33:28.674Z,17.27
2023-02-16T18:35:57.515Z,17.00
2023-02-16T18:38:25.037Z,16.63
2023-02-16T18:40:54.030Z,16.08
2023-02-16T18:43:22.126Z,14.68
2023-02-16T18:45:49.253Z,15.10
2023-02-16T18:48:16.368Z,15.38
2023-02-16T18:50:43.355Z,15.57
2023-02-16T18:53:10.299Z,13.75
2023-02-16T18:55:37.263Z,14.88
2023-02-16T18:58:07.936Z,14.40
2023-02-16T19:00:36.536Z,14.98
2023-02-16T19:03:03.998Z,15.48
2023-02-16T19:05:31.634Z,14.95
2023-02-16T19:07:58.703Z,13.85
2023-02-16T19:10:25.763Z,12.88
2023-02-16T19:12:52.885Z,12.55
2023-02-16T19:15:20.004Z,13.98
2023-02-16T19:17:47.003Z,12.80
2023-02-16T19:20:18.113Z,12.65
2023-02-16T19:22:46.916Z,13.00
2023-02-16T19:25:15.134Z,11.10
2023-02-16T19:27:45.044Z,11.90
2023-02-16T19:30:12.736Z,11.32
2023-02-16T19:32:41.211Z,10.60
2023-02-16T19:35:12.317Z,10.70
2023-02-16T19:37:39.384Z,9.57
2023-02-16T19:40:08.626Z,9.88
2023-02-16T19:42:35.769Z,9.48
2023-02-16T19:45:03.266Z,9.05
2023-02-16T19:47:30.328Z,11.23
2023-02-16T19:49:57.794Z,11.35
2023-02-16T19:52:24.906Z,9.00
2023-02-16T19:54:52.004Z,10.95
2023-02-16T19:57:19.355Z,11.43
2023-02-16T19:59:46.273Z,13.05
2023-02-16T20:02:15.431Z,9.40
2023-02-16T20:04:43.407Z,9.52
2023-02-16T20:07:10.465Z,9.48
2023-02-16T20:09:37.589Z,10.85
2023-02-16T20:12:05.244Z,11.43
2023-02-16T20:14:32.245Z,12.15
2023-02-16T20:16:59.216Z,10.98
2023-02-16T20:19:26.178Z,9.55
2023-02-16T20:21:53.130Z,8.63
2023-02-16T20:24:20.527Z,8.07
2023-02-16T20:26:49.128Z,10.18
2023-02-16T20:29:16.694Z,9.02
2023-02-16T20:31:56.225Z,8.40
2023-02-16T20:34:25.896Z,9.80
2023-02-16T20:36:52.965Z,8.57
2023-02-16T20:39:20.218Z,7.05
2023-02-16T20:41:47.469Z,9.52
2023-02-16T20:44:14.970Z,13.60
2023-02-16T20:46:42.592Z,19.90
2023-02-16T20:49:10.113Z,17.90
2023-02-16T20:51:38.224Z,29.73
2023-02-16T20:54:06.082Z,16.63
2023-02-16T20:56:33.371Z,24.00
2023-02-16T20:59:01.519Z,24.17
2023-02-16T21:01:31.407Z,20.17
2023-02-16T21:03:59.821Z,23.80
2023-02-16T21:06:28.365Z,18.67
2023-02-16T21:08:56.081Z,14.27
2023-02-16T21:11:24.162Z,17.52
2023-02-16T21:13:54.712Z,19.20
2023-02-16T21:16:21.945Z,17.55
2023-02-16T21:18:49.165Z,16.70
2023-02-16T21:21:16.525Z,14.23
2023-02-16T21:23:46.679Z,13.00
2023-02-16T21:26:14.532Z,12.40
2023-02-16T21:28:41.953Z,12.02
2023-02-16T21:31:12.694Z,9.85
2023-02-16T21:33:41.004Z,11.15
2023-02-16T21:36:11.523Z,11.20
2023-02-16T21:38:39.133Z,10.00
2023-02-16T21:41:24.493Z,8.43
2023-02-16T21:43:58.499Z,8.35
2023-02-16T21:46:26.516Z,8.95
2023-02-16T21:48:55.168Z,7.03
2023-02-16T21:51:28.273Z,7.75
2023-02-16T21:53:56.561Z,7.97
2023-02-16T21:56:44.873Z,6.38
2023-02-16T21:59:14.362Z,6.93
2023-02-16T22:01:47.533Z,6.53
2023-02-16T22:04:17.293Z,6.10
2023-02-16T22:06:47.312Z,6.15
2023-02-16T22:09:19.725Z,6.93
2023-02-16T22:11:47.743Z,6.13
2023-02-16T22:14:15.450Z,5.80
2023-02-16T22:16:45.747Z,5.80
2023-02-16T22:19:14.958Z,5.55
2023-02-16T22:21:43.969Z,5.57
2023-02-16T22:24:13.626Z,5.30
2023-02-16T22:26:41.023Z,5.00
2023-02-16T22:29:09.395Z,5.40
2023-02-16T22:31:37.127Z,4.82
2023-02-16T22:34:06.431Z,5.80
2023-02-16T22:36:34.468Z,5.20
2023-02-16T22:39:01.497Z,5.40
2023-02-16T22:41:28.715Z,4.70
2023-02-16T22:43:57.276Z,4.93
2023-02-16T22:46:24.812Z,4.22
2023-02-16T22:48:52.670Z,4.80
2023-02-16T22:51:21.484Z,4.47
2023-02-16T22:53:48.712Z,4.28
2023-02-16T22:56:18.218Z,3.88
2023-02-16T22:58:45.958Z,4.55
2023-02-16T23:01:15.233Z,4.53
2023-02-16T23:03:42.814Z,3.75
2023-02-16T23:06:15.619Z,4.38
2023-02-16T23:08:44.200Z,3.58
2023-02-16T23:11:12.402Z,3.97
2023-02-16T23:13:39.572Z,4.18
2023-02-16T23:16:13.852Z,3.22
2023-02-16T23:18:41.487Z,3.50
2023-02-16T23:21:14.014Z,3.72
2023-02-16T23:23:41.292Z,3.83
2023-02-16T23:26:08.852Z,3.53
2023-02-16T23:28:36.634Z,4.40
2023-02-16T23:31:04.293Z,3.25
2023-02-16T23:33:31.311Z,3.85
2023-02-16T23:36:01.737Z,3.65
2023-02-16T23:38:29.058Z,3.47
2023-02-16T23:41:01.681Z,3.05
2023-02-16T23:43:28.680Z,3.42
2023-02-16T23:45:56.281Z,3.75
2023-02-16T23:48:27.461Z,3.08
2023-02-16T23:50:54.579Z,2.40
2023-02-16T23:53:23.338Z,3.17
2023-02-16T23:56:00.620Z,2.88
2023-02-16T23:58:33.073Z,3.22
